Time;durP1;ratioP1;P1;durP2;ratioP2;P2;SDS_P1;SDS_P2;PMS_P1;PMS_P2;Temp;Humidity;BMP_temperature;BMP_pressure;BME280_temperature;BME280_humidity;BME280_pressure;Samples;Min_cycle;Max_cycle;Signal;HPM_P1;HPM_P2
2023/08/02 00:00:07;;;;;;;2.10;1.03;;;;;;;;;;4906817;29;20547;-68
2023/08/02 00:02:35;;;;;;;5.90;1.40;;;;;;;;;;4913313;29;20507;-69
2023/08/02 00:05:02;;;;;;;1.90;1.03;;;;;;;;;;4915612;29;20516;-69
2023/08/02 00:07:29;;;;;;;2.10;0.90;;;;;;;;;;4913500;29;20570;-68
2023/08/02 00:09:57;;;;;;;2.80;1.17;;;;;;;;;;4911359;29;20812;-68
2023/08/02 00:12:25;;;;;;;2.00;0.90;;;;;;;;;;4915810;29;20444;-70
2023/08/02 00:14:54;;;;;;;2.40;1.10;;;;;;;;;;4914224;29;20488;-71
2023/08/02 00:17:21;;;;;;;1.60;0.70;;;;;;;;;;4915688;29;20546;-69
2023/08/02 00:19:48;;;;;;;1.97;1.03;;;;;;;;;;4910286;29;20611;-68
2023/08/02 00:22:15;;;;;;;1.83;0.90;;;;;;;;;;4914274;29;20526;-67
2023/08/02 00:24:43;;;;;;;1.80;0.80;;;;;;;;;;4906775;29;20472;-68
2023/08/02 00:27:10;;;;;;;2.27;0.80;;;;;;;;;;4915312;29;20475;-68
2023/08/02 00:29:38;;;;;;;2.60;1.33;;;;;;;;;;4915493;29;20964;-68
2023/08/02 00:32:06;;;;;;;1.40;0.70;;;;;;;;;;4922410;29;20460;-69
2023/08/02 00:34:33;;;;;;;3.00;0.90;;;;;;;;;;4921728;29;20471;-68
2023/08/02 00:37:01;;;;;;;2.10;1.20;;;;;;;;;;4920417;29;20494;-67
2023/08/02 00:39:28;;;;;;;2.90;1.20;;;;;;;;;;4916344;29;20460;-68
2023/08/02 00:41:55;;;;;;;1.37;0.60;;;;;;;;;;4923192;29;20484;-68
2023/08/02 00:44:22;;;;;;;1.70;0.90;;;;;;;;;;4915610;29;20563;-68
2023/08/02 00:46:51;;;;;;;2.13;0.90;;;;;;;;;;4920048;29;20574;-68
2023/08/02 00:49:18;;;;;;;2.20;0.70;;;;;;;;;;4919554;29;20559;-69
2023/08/02 00:51:45;;;;;;;1.83;0.83;;;;;;;;;;4916676;29;20547;-68
2023/08/02 00:54:13;;;;;;;1.47;0.87;;;;;;;;;;4917584;29;20547;-69
2023/08/02 00:56:40;;;;;;;1.70;0.80;;;;;;;;;;4919491;29;20575;-69
2023/08/02 00:59:07;;;;;;;2.93;0.70;;;;;;;;;;4916274;29;20853;-69
2023/08/02 01:01:35;;;;;;;1.80;0.80;;;;;;;;;;4914723;29;20974;-69
2023/08/02 01:04:04;;;;;;;1.50;0.77;;;;;;;;;;4921867;29;20453;-68
2023/08/02 01:06:34;;;;;;;7.73;0.90;;;;;;;;;;4915560;29;20523;-67
2023/08/02 01:09:03;;;;;;;1.70;0.67;;;;;;;;;;4917584;29;20985;-68
2023/08/02 01:11:33;;;;;;;1.60;0.57;;;;;;;;;;4914352;29;20456;-68
2023/08/02 01:14:03;;;;;;;1.60;0.70;;;;;;;;;;4919351;29;20462;-69
2023/08/02 01:16:30;;;;;;;1.90;0.80;;;;;;;;;;4917574;29;20476;-68
2023/08/02 01:18:57;;;;;;;2.17;0.80;;;;;;;;;;4911775;29;20983;-69
2023/08/02 01:21:26;;;;;;;2.37;0.80;;;;;;;;;;4918020;29;20514;-69
2023/08/02 01:23:53;;;;;;;2.27;0.90;;;;;;;;;;4914873;29;20543;-68
2023/08/02 01:26:22;;;;;;;2.70;1.23;;;;;;;;;;4916936;29;20567;-68
2023/08/02 01:28:53;;;;;;;2.33;0.90;;;;;;;;;;4921237;29;20460;-68
2023/08/02 01:31:21;;;;;;;1.60;0.77;;;;;;;;;;4917638;29;20474;-68
2023/08/02 01:33:50;;;;;;;1.60;0.87;;;;;;;;;;4919418;29;20583;-68
2023/08/02 01:36:18;;;;;;;2.47;1.20;;;;;;;;;;4916180;29;20484;-68
2023/08/02 01:38:46;;;;;;;1.30;0.50;;;;;;;;;;4919038;29;20893;-68
2023/08/02 01:41:13;;;;;;;2.53;0.80;;;;;;;;;;4915569;29;20483;-68
2023/08/02 01:43:40;;;;;;;1.80;0.83;;;;;;;;;;4920326;29;20457;-68
2023/08/02 01:46:08;;;;;;;2.03;0.73;;;;;;;;;;4912727;29;20484;-68
2023/08/02 01:48:35;;;;;;;2.30;0.90;;;;;;;;;;4918412;29;20568;-68
2023/08/02 01:51:02;;;;;;;1.80;0.77;;;;;;;;;;4916445;29;20456;-67
2023/08/02 01:53:29;;;;;;;1.40;0.60;;;;;;;;;;4913286;29;20997;-67
2023/08/02 01:55:58;;;;;;;4.80;1.10;;;;;;;;;;4917176;29;21014;-68
2023/08/02 01:58:25;;;;;;;1.60;0.80;;;;;;;;;;4918251;29;20531;-68
2023/08/02 02:00:52;;;;;;;2.33;0.83;;;;;;;;;;4918773;29;20460;-69
2023/08/02 02:03:19;;;;;;;1.80;0.63;;;;;;;;;;4930187;29;20537;-68
2023/08/02 02:05:52;;;;;;;1.80;0.70;;;;;;;;;;4929311;29;20504;-68
2023/08/02 02:08:19;;;;;;;2.50;1.00;;;;;;;;;;4923963;29;20465;-68
2023/08/02 02:10:49;;;;;;;2.27;0.80;;;;;;;;;;4925196;29;20500;-68
2023/08/02 02:13:18;;;;;;;1.70;1.07;;;;;;;;;;4912211;29;20465;-68
2023/08/02 02:15:45;;;;;;;2.00;0.83;;;;;;;;;;4915466;29;20511;-69
2023/08/02 02:18:12;;;;;;;1.37;0.67;;;;;;;;;;4910241;29;20556;-68
2023/08/02 02:20:39;;;;;;;1.93;0.80;;;;;;;;;;4910717;29;20475;-68
2023/08/02 02:23:06;;;;;;;2.03;1.00;;;;;;;;;;4910980;29;20509;-68
2023/08/02 02:25:33;;;;;;;1.80;0.77;;;;;;;;;;4914201;29;20913;-68
2023/08/02 02:28:01;;;;;;;1.83;0.70;;;;;;;;;;4910189;29;20588;-68
2023/08/02 02:30:29;;;;;;;1.40;0.70;;;;;;;;;;4915484;29;20847;-69
2023/08/02 02:32:56;;;;;;;1.93;0.73;;;;;;;;;;4913388;29;20452;-68
2023/08/02 02:35:24;;;;;;;1.90;0.80;;;;;;;;;;4908217;29;20492;-68
2023/08/02 02:37:51;;;;;;;1.83;0.87;;;;;;;;;;4909690;29;20959;-69
2023/08/02 02:40:18;;;;;;;1.60;0.80;;;;;;;;;;4913359;29;20468;-68
2023/08/02 02:42:45;;;;;;;1.60;0.90;;;;;;;;;;4914044;29;20483;-68
2023/08/02 02:45:13;;;;;;;2.10;0.70;;;;;;;;;;4915242;29;20915;-69
2023/08/02 02:47:42;;;;;;;1.40;0.60;;;;;;;;;;4918068;29;20465;-68
2023/08/02 02:50:09;;;;;;;1.43;0.67;;;;;;;;;;4914137;29;20560;-68
2023/08/02 02:52:36;;;;;;;1.87;0.70;;;;;;;;;;4911625;29;20801;-68
2023/08/02 02:55:04;;;;;;;2.67;0.77;;;;;;;;;;4913098;29;20548;-68
2023/08/02 02:57:31;;;;;;;2.20;0.87;;;;;;;;;;4914182;29;20563;-68
2023/08/02 02:59:58;;;;;;;1.63;0.70;;;;;;;;;;4912479;29;20551;-68
2023/08/02 03:02:25;;;;;;;1.90;0.87;;;;;;;;;;4907365;29;20488;-68
2023/08/02 03:04:54;;;;;;;1.90;1.00;;;;;;;;;;4915216;29;20464;-68
2023/08/02 03:07:21;;;;;;;1.60;1.00;;;;;;;;;;4917666;29;21031;-68
2023/08/02 03:09:48;;;;;;;3.27;1.07;;;;;;;;;;4909416;29;20468;-68
2023/08/02 03:12:15;;;;;;;2.10;0.90;;;;;;;;;;4909523;29;20898;-68
2023/08/02 03:14:42;;;;;;;2.10;0.73;;;;;;;;;;4912148;29;20461;-68
2023/08/02 03:17:10;;;;;;;2.03;1.07;;;;;;;;;;4909261;29;20486;-68
2023/08/02 03:19:37;;;;;;;2.00;0.63;;;;;;;;;;4907879;29;20503;-68
2023/08/02 03:22:06;;;;;;;1.43;0.60;;;;;;;;;;4917227;29;20566;-68
2023/08/02 03:24:33;;;;;;;2.07;1.20;;;;;;;;;;4910986;29;20488;-68
2023/08/02 03:27:00;;;;;;;7.23;1.27;;;;;;;;;;4911850;29;20862;-69
2023/08/02 03:29:28;;;;;;;2.23;1.70;;;;;;;;;;4910162;29;20552;-67
2023/08/02 03:31:55;;;;;;;1.60;0.80;;;;;;;;;;4917548;29;20811;-69
2023/08/02 03:34:22;;;;;;;2.60;1.10;;;;;;;;;;4913815;29;20460;-69
2023/08/02 03:36:49;;;;;;;2.10;0.87;;;;;;;;;;4920070;29;20841;-68
2023/08/02 03:39:17;;;;;;;1.50;0.67;;;;;;;;;;4912219;29;20468;-68
2023/08/02 03:41:45;;;;;;;1.60;0.77;;;;;;;;;;4911598;29;20480;-68
2023/08/02 03:44:12;;;;;;;1.50;0.73;;;;;;;;;;4915576;29;20520;-68
2023/08/02 03:46:39;;;;;;;1.70;0.90;;;;;;;;;;4912058;29;21008;-68
2023/08/02 03:49:06;;;;;;;1.93;1.00;;;;;;;;;;4914430;29;20967;-68
2023/08/02 03:51:33;;;;;;;2.00;0.97;;;;;;;;;;4915110;29;20468;-68
2023/08/02 03:54:01;;;;;;;1.70;0.90;;;;;;;;;;4912630;29;20486;-68
2023/08/02 03:56:29;;;;;;;2.20;1.10;;;;;;;;;;4915055;29;20472;-68
2023/08/02 03:58:56;;;;;;;1.83;1.17;;;;;;;;;;4913383;29;20437;-68
2023/08/02 04:01:24;;;;;;;2.00;1.27;;;;;;;;;;4914875;29;20483;-68
2023/08/02 04:03:51;;;;;;;3.00;0.90;;;;;;;;;;4914319;29;20847;-69
2023/08/02 04:06:18;;;;;;;2.30;0.83;;;;;;;;;;4915324;29;20755;-68
2023/08/02 04:08:45;;;;;;;1.60;0.70;;;;;;;;;;4914496;29;20558;-68
2023/08/02 04:11:12;;;;;;;1.60;0.70;;;;;;;;;;4910981;29;20594;-68
2023/08/02 04:13:41;;;;;;;3.40;1.23;;;;;;;;;;4912389;29;20997;-69
2023/08/02 04:16:08;;;;;;;1.40;0.73;;;;;;;;;;4909075;29;20483;-68
2023/08/02 04:18:35;;;;;;;2.80;0.90;;;;;;;;;;4913185;29;20467;-68
2023/08/02 04:21:02;;;;;;;1.50;0.77;;;;;;;;;;4912916;29;20555;-68
2023/08/02 04:23:29;;;;;;;2.17;1.00;;;;;;;;;;4913462;29;20910;-68
2023/08/02 04:25:57;;;;;;;2.10;0.90;;;;;;;;;;4910576;29;20837;-68
2023/08/02 04:28:24;;;;;;;2.43;0.97;;;;;;;;;;4914681;29;20462;-68
2023/08/02 04:30:52;;;;;;;2.30;0.97;;;;;;;;;;4911733;29;20461;-68
2023/08/02 04:33:19;;;;;;;2.33;1.10;;;;;;;;;;4912847;29;20835;-68
2023/08/02 04:35:47;;;;;;;2.97;1.17;;;;;;;;;;4910115;29;20491;-68
2023/08/02 04:38:14;;;;;;;1.77;0.80;;;;;;;;;;4916568;29;20827;-68
2023/08/02 04:40:41;;;;;;;2.17;1.10;;;;;;;;;;4910173;29;20552;-68
2023/08/02 04:43:08;;;;;;;1.73;0.60;;;;;;;;;;4914395;29;20528;-67
2023/08/02 04:45:35;;;;;;;1.80;0.90;;;;;;;;;;4911187;29;20560;-67
2023/08/02 04:48:04;;;;;;;1.90;1.20;;;;;;;;;;4912185;29;20548;-68
2023/08/02 04:50:34;;;;;;;2.97;1.10;;;;;;;;;;4914694;29;20440;-67
2023/08/02 04:53:01;;;;;;;2.17;1.00;;;;;;;;;;4914578;29;20508;-67
2023/08/02 04:55:28;;;;;;;1.90;0.93;;;;;;;;;;4909731;29;21154;-68
2023/08/02 04:57:56;;;;;;;2.90;1.20;;;;;;;;;;4914448;29;20520;-67
2023/08/02 05:00:23;;;;;;;2.40;1.10;;;;;;;;;;4906325;29;20472;-67
2023/08/02 05:02:50;;;;;;;2.30;1.07;;;;;;;;;;4914523;29;20579;-67
2023/08/02 05:05:18;;;;;;;2.80;1.13;;;;;;;;;;4912603;29;20452;-67
2023/08/02 05:07:46;;;;;;;2.30;0.90;;;;;;;;;;4914419;29;20964;-68
2023/08/02 05:10:13;;;;;;;1.93;0.90;;;;;;;;;;4909879;29;20539;-67
2023/08/02 05:12:42;;;;;;;1.93;0.93;;;;;;;;;;4912701;29;20535;-67
2023/08/02 05:15:09;;;;;;;2.50;0.83;;;;;;;;;;4913776;29;20436;-66
2023/08/02 05:17:36;;;;;;;2.40;0.93;;;;;;;;;;4916749;29;20487;-67
2023/08/02 05:20:03;;;;;;;3.83;0.80;;;;;;;;;;4913958;29;20555;-66
2023/08/02 05:22:32;;;;;;;2.27;0.87;;;;;;;;;;4914719;29;20847;-67
2023/08/02 05:24:59;;;;;;;2.47;1.17;;;;;;;;;;4912706;29;20470;-68
2023/08/02 05:27:26;;;;;;;2.37;1.23;;;;;;;;;;4913487;29;20855;-68
2023/08/02 05:29:53;;;;;;;1.80;0.97;;;;;;;;;;4914523;29;20468;-67
2023/08/02 05:32:21;;;;;;;2.33;0.83;;;;;;;;;;4913243;29;20461;-67
2023/08/02 05:34:48;;;;;;;2.00;0.80;;;;;;;;;;4914939;29;20547;-67
2023/08/02 05:37:15;;;;;;;1.90;0.77;;;;;;;;;;4917377;29;20492;-68
2023/08/02 05:39:43;;;;;;;2.93;1.00;;;;;;;;;;4911342;29;20559;-68
2023/08/02 05:42:11;;;;;;;2.00;1.10;;;;;;;;;;4915140;29;20919;-67
2023/08/02 05:44:39;;;;;;;2.37;1.00;;;;;;;;;;4921216;29;20505;-68
2023/08/02 05:47:07;;;;;;;4.33;1.00;;;;;;;;;;4916970;29;20480;-67
2023/08/02 05:49:34;;;;;;;2.33;1.13;;;;;;;;;;4915165;29;20500;-68
2023/08/02 05:52:02;;;;;;;2.50;0.93;;;;;;;;;;4917485;29;20472;-67
2023/08/02 05:54:29;;;;;;;3.40;1.20;;;;;;;;;;4913082;29;20468;-68
2023/08/02 05:56:57;;;;;;;2.57;1.53;;;;;;;;;;4914243;29;20515;-68
2023/08/02 05:59:27;;;;;;;1.97;0.90;;;;;;;;;;4915753;29;20465;-68
2023/08/02 06:01:55;;;;;;;2.30;1.07;;;;;;;;;;4911222;29;20528;-69
2023/08/02 06:04:22;;;;;;;2.47;1.10;;;;;;;;;;4911054;29;20475;-68
2023/08/02 06:06:49;;;;;;;2.97;1.47;;;;;;;;;;4914526;29;20927;-69
2023/08/02 06:09:16;;;;;;;3.10;1.33;;;;;;;;;;4914958;29;20464;-68
2023/08/02 06:11:43;;;;;;;2.10;1.30;;;;;;;;;;4913970;29;20543;-68
2023/08/02 06:14:12;;;;;;;2.60;1.23;;;;;;;;;;4915211;29;20453;-68
2023/08/02 06:16:39;;;;;;;2.70;1.07;;;;;;;;;;4913419;29;20571;-67
2023/08/02 06:19:06;;;;;;;4.60;1.17;;;;;;;;;;4913957;29;20881;-68
2023/08/02 06:21:34;;;;;;;2.27;1.20;;;;;;;;;;4914451;29;20459;-68
2023/08/02 06:24:01;;;;;;;2.63;1.17;;;;;;;;;;4914702;29;20953;-68
2023/08/02 06:26:28;;;;;;;2.37;1.13;;;;;;;;;;4910719;29;20543;-68
2023/08/02 06:28:56;;;;;;;1.80;1.00;;;;;;;;;;4917652;29;20444;-68
2023/08/02 06:31:24;;;;;;;1.90;0.93;;;;;;;;;;4913049;29;20559;-68
2023/08/02 06:33:52;;;;;;;2.17;1.00;;;;;;;;;;4916475;29;20444;-68
2023/08/02 06:36:19;;;;;;;3.30;1.17;;;;;;;;;;4916576;29;20494;-68
2023/08/02 06:38:46;;;;;;;3.50;1.10;;;;;;;;;;4914419;29;20476;-68
2023/08/02 06:41:13;;;;;;;3.20;1.60;;;;;;;;;;4905880;29;20479;-68
2023/08/02 06:43:40;;;;;;;3.37;2.07;;;;;;;;;;4908571;29;20486;-69
2023/08/02 06:46:08;;;;;;;3.50;1.47;;;;;;;;;;4917673;29;20983;-67
2023/08/02 06:48:36;;;;;;;2.60;1.20;;;;;;;;;;4919801;29;20504;-67
2023/08/02 06:51:03;;;;;;;2.20;1.20;;;;;;;;;;4915733;29;20464;-68
2023/08/02 06:53:30;;;;;;;3.13;1.40;;;;;;;;;;4914818;29;20551;-68
2023/08/02 06:55:58;;;;;;;2.33;1.20;;;;;;;;;;4915106;29;20487;-67
2023/08/02 06:58:26;;;;;;;2.50;1.30;;;;;;;;;;4904365;29;20468;-69
2023/08/02 07:00:53;;;;;;;2.93;1.40;;;;;;;;;;4904986;29;20889;-69
2023/08/02 07:03:21;;;;;;;3.77;1.77;;;;;;;;;;4911706;29;20579;-68
2023/08/02 07:05:50;;;;;;;3.30;1.50;;;;;;;;;;4914312;29;20513;-69
2023/08/02 07:08:17;;;;;;;5.03;1.80;;;;;;;;;;4915181;29;20532;-69
2023/08/02 07:10:44;;;;;;;2.20;1.10;;;;;;;;;;4911992;29;20548;-67
2023/08/02 07:13:11;;;;;;;2.70;1.30;;;;;;;;;;4917676;29;20525;-67
2023/08/02 07:15:38;;;;;;;2.30;1.40;;;;;;;;;;4913964;29;20460;-66
2023/08/02 07:18:05;;;;;;;3.60;1.53;;;;;;;;;;4914064;29;20469;-69
2023/08/02 07:20:33;;;;;;;2.87;1.30;;;;;;;;;;4911440;29;21044;-68
2023/08/02 07:23:01;;;;;;;3.10;1.60;;;;;;;;;;4912374;29;20496;-70
2023/08/02 07:25:28;;;;;;;2.50;1.23;;;;;;;;;;4915502;29;20480;-68
2023/08/02 07:27:55;;;;;;;2.10;1.00;;;;;;;;;;4917318;29;20468;-68
2023/08/02 07:30:23;;;;;;;2.70;1.57;;;;;;;;;;4918103;29;20479;-69
2023/08/02 07:32:50;;;;;;;2.43;1.10;;;;;;;;;;4915076;29;20472;-69
2023/08/02 07:35:17;;;;;;;4.03;1.37;;;;;;;;;;4915744;29;20545;-69
2023/08/02 07:37:44;;;;;;;2.20;1.20;;;;;;;;;;4916802;29;20467;-69
2023/08/02 07:40:13;;;;;;;4.40;1.90;;;;;;;;;;4913444;29;20464;-67
2023/08/02 07:42:41;;;;;;;2.73;1.00;;;;;;;;;;4916469;29;20853;-66
2023/08/02 07:45:08;;;;;;;3.87;1.37;;;;;;;;;;4914582;29;20464;-69
2023/08/02 07:47:36;;;;;;;2.73;1.13;;;;;;;;;;4917691;29;20468;-70
2023/08/02 07:50:03;;;;;;;2.30;1.00;;;;;;;;;;4917054;29;20441;-68
2023/08/02 07:52:30;;;;;;;4.27;1.60;;;;;;;;;;4915965;29;20897;-67
2023/08/02 07:54:58;;;;;;;2.93;1.23;;;;;;;;;;4915967;29;20467;-68
2023/08/02 07:57:27;;;;;;;2.83;1.00;;;;;;;;;;4915289;29;20804;-67
2023/08/02 07:59:55;;;;;;;2.13;1.10;;;;;;;;;;4916974;29;20452;-68
2023/08/02 08:02:22;;;;;;;2.30;1.20;;;;;;;;;;4917892;29;20460;-68
2023/08/02 08:04:49;;;;;;;3.07;1.73;;;;;;;;;;4915024;29;20482;-68
2023/08/02 08:07:16;;;;;;;3.13;1.30;;;;;;;;;;4918310;29;20862;-67
2023/08/02 08:09:44;;;;;;;4.20;1.63;;;;;;;;;;4913685;29;20457;-69
2023/08/02 08:12:11;;;;;;;2.47;1.53;;;;;;;;;;4916952;29;20951;-67
2023/08/02 08:14:40;;;;;;;2.43;1.10;;;;;;;;;;4907368;29;20543;-66
2023/08/02 08:17:07;;;;;;;2.20;1.20;;;;;;;;;;4912059;29;20551;-67
2023/08/02 08:19:34;;;;;;;2.70;1.33;;;;;;;;;;4915752;29;20535;-67
2023/08/02 08:22:01;;;;;;;3.30;1.70;;;;;;;;;;4916403;29;20501;-67
2023/08/02 08:24:29;;;;;;;1.90;0.93;;;;;;;;;;4913571;29;20532;-67
2023/08/02 08:26:56;;;;;;;3.10;1.50;;;;;;;;;;4918354;29;20555;-67
2023/08/02 08:29:24;;;;;;;2.33;0.73;;;;;;;;;;4911365;29;20540;-66
2023/08/02 08:31:52;;;;;;;2.33;1.07;;;;;;;;;;4916560;29;20556;-69
2023/08/02 08:34:20;;;;;;;3.30;1.30;;;;;;;;;;4915129;29;20461;-68
2023/08/02 08:36:47;;;;;;;3.43;1.33;;;;;;;;;;4916680;29;20468;-68
2023/08/02 08:39:14;;;;;;;2.90;1.53;;;;;;;;;;4914887;29;20541;-67
2023/08/02 08:41:42;;;;;;;4.37;1.33;;;;;;;;;;4916762;29;20433;-68
2023/08/02 08:44:09;;;;;;;3.20;1.87;;;;;;;;;;4914230;29;20483;-68
2023/08/02 08:46:36;;;;;;;2.53;1.10;;;;;;;;;;4915362;29;20904;-68
2023/08/02 08:49:05;;;;;;;2.87;1.13;;;;;;;;;;4918410;29;20458;-68
2023/08/02 08:51:34;;;;;;;2.00;1.47;;;;;;;;;;4918423;29;20503;-67
2023/08/02 08:54:03;;;;;;;2.17;1.00;;;;;;;;;;4918490;29;20982;-68
2023/08/02 08:56:30;;;;;;;3.93;2.17;;;;;;;;;;4919326;29;20975;-67
2023/08/02 08:58:59;;;;;;;2.00;0.80;;;;;;;;;;4919270;29;20436;-67
2023/08/02 09:01:27;;;;;;;3.00;1.50;;;;;;;;;;4920687;29;20484;-68
2023/08/02 09:03:54;;;;;;;2.40;0.97;;;;;;;;;;4918289;29;20491;-68
2023/08/02 09:06:23;;;;;;;3.77;1.73;;;;;;;;;;4920995;29;20490;-67
2023/08/02 09:08:50;;;;;;;3.43;0.87;;;;;;;;;;4917680;29;20555;-68
2023/08/02 09:11:17;;;;;;;2.60;1.27;;;;;;;;;;4919458;29;20455;-67
2023/08/02 09:13:45;;;;;;;2.10;1.27;;;;;;;;;;4915745;29;20928;-67
2023/08/02 09:16:13;;;;;;;2.97;1.07;;;;;;;;;;4916321;29;20494;-68
2023/08/02 09:18:41;;;;;;;2.90;1.20;;;;;;;;;;4918487;29;20446;-70
2023/08/02 09:21:11;;;;;;;3.80;0.90;;;;;;;;;;4919301;29;20788;-68
2023/08/02 09:23:39;;;;;;;2.83;2.00;;;;;;;;;;4911258;29;20475;-67
2023/08/02 09:26:14;;;;;;;3.10;1.37;;;;;;;;;;4916296;29;20572;-66
2023/08/02 09:28:41;;;;;;;2.80;1.47;;;;;;;;;;4917029;29;20549;-67
2023/08/02 09:31:16;;;;;;;3.73;1.53;;;;;;;;;;4917654;29;20805;-68
2023/08/02 09:33:50;;;;;;;2.57;1.33;;;;;;;;;;4914166;29;20496;-68
2023/08/02 09:36:27;;;;;;;2.90;1.53;;;;;;;;;;4922052;29;20459;-68
2023/08/02 09:39:01;;;;;;;2.50;1.10;;;;;;;;;;4918490;29;20495;-67
2023/08/02 09:41:28;;;;;;;1.80;0.80;;;;;;;;;;4919131;29;20496;-68
2023/08/02 09:43:56;;;;;;;2.70;1.70;;;;;;;;;;4918744;29;20839;-67
2023/08/02 09:46:26;;;;;;;3.03;1.60;;;;;;;;;;4920606;29;20468;-68
2023/08/02 09:48:54;;;;;;;3.13;1.37;;;;;;;;;;4918275;29;20459;-68
2023/08/02 09:51:21;;;;;;;2.20;1.13;;;;;;;;;;4918912;29;20437;-67
2023/08/02 09:53:55;;;;;;;3.90;1.90;;;;;;;;;;4913909;29;20460;-67
2023/08/02 09:56:27;;;;;;;2.70;1.70;;;;;;;;;;4916420;29;20496;-68
2023/08/02 09:58:56;;;;;;;2.20;1.27;;;;;;;;;;4917980;29;20451;-69
2023/08/02 10:01:24;;;;;;;4.93;1.10;;;;;;;;;;4918510;29;20464;-69
2023/08/02 10:03:55;;;;;;;2.57;1.23;;;;;;;;;;4914994;29;20472;-68
2023/08/02 10:06:24;;;;;;;3.07;1.60;;;;;;;;;;4917900;29;20522;-68
2023/08/02 10:08:52;;;;;;;3.47;1.70;;;;;;;;;;4913983;29;20467;-68
2023/08/02 10:11:19;;;;;;;2.70;1.43;;;;;;;;;;4921150;29;20500;-68
2023/08/02 10:13:49;;;;;;;2.23;1.10;;;;;;;;;;4916674;29;20471;-68
2023/08/02 10:16:18;;;;;;;2.67;1.30;;;;;;;;;;4917822;29;20913;-68
2023/08/02 10:18:46;;;;;;;2.87;1.53;;;;;;;;;;4960475;23;20496;-63
2023/08/02 10:21:15;;;;;;;4.53;1.43;;;;;;;;;;4936461;29;20438;-63
2023/08/02 10:23:43;;;;;;;3.50;1.73;;;;;;;;;;4935729;29;20547;-63
2023/08/02 10:26:10;;;;;;;3.23;1.20;;;;;;;;;;4935635;29;20522;-63
2023/08/02 10:28:38;;;;;;;2.00;1.10;;;;;;;;;;4938464;29;20476;-62
2023/08/02 10:31:08;;;;;;;2.37;1.10;;;;;;;;;;4935676;29;20443;-63
2023/08/02 10:33:35;;;;;;;3.37;1.53;;;;;;;;;;4935621;29;20551;-63
2023/08/02 10:36:03;;;;;;;3.73;1.10;;;;;;;;;;4936002;29;20816;-63
2023/08/02 10:38:48;;;;;;;3.30;1.30;;;;;;;;;;4935997;29;20482;-64
2023/08/02 10:41:16;;;;;;;3.37;1.60;;;;;;;;;;4931328;29;20809;-63
2023/08/02 10:44:00;;;;;;;3.80;2.13;;;;;;;;;;4933832;29;20462;-63
2023/08/02 10:46:32;;;;;;;2.53;1.40;;;;;;;;;;4928843;29;20485;-66
2023/08/02 10:49:21;;;;;;;2.53;1.50;;;;;;;;;;4933234;29;20450;-62
2023/08/02 10:51:49;;;;;;;4.50;1.80;;;;;;;;;;4933629;29;20799;-64
2023/08/02 10:54:18;;;;;;;4.97;2.27;;;;;;;;;;4934165;29;20830;-64
2023/08/02 10:57:07;;;;;;;3.07;1.73;;;;;;;;;;4935242;29;20464;-64
2023/08/02 10:59:40;;;;;;;4.17;2.37;;;;;;;;;;4933665;29;20432;-63
2023/08/02 11:02:09;;;;;;;2.67;1.50;;;;;;;;;;4931906;29;20452;-64
2023/08/02 11:04:37;;;;;;;2.70;1.80;;;;;;;;;;4932048;28;20954;-64
2023/08/02 11:07:14;;;;;;;2.90;1.67;;;;;;;;;;4955459;23;20570;-64
2023/08/02 11:09:43;;;;;;;3.17;1.80;;;;;;;;;;4934724;29;20451;-63
2023/08/02 11:12:10;;;;;;;2.40;1.20;;;;;;;;;;4936356;28;20451;-63
2023/08/02 11:14:38;;;;;;;2.73;1.17;;;;;;;;;;4935811;29;20993;-64
2023/08/02 11:17:05;;;;;;;2.57;1.57;;;;;;;;;;4935631;29;20552;-64
2023/08/02 11:19:34;;;;;;;2.83;1.30;;;;;;;;;;4933917;29;20491;-63
2023/08/02 11:22:01;;;;;;;3.80;1.93;;;;;;;;;;4934365;28;20444;-64
2023/08/02 11:24:28;;;;;;;4.23;1.70;;;;;;;;;;4933492;29;20487;-63
2023/08/02 11:26:56;;;;;;;5.10;1.67;;;;;;;;;;4934549;29;20518;-64
2023/08/02 11:29:23;;;;;;;5.93;1.67;;;;;;;;;;4934577;29;20483;-63
2023/08/02 11:31:51;;;;;;;4.70;1.83;;;;;;;;;;4935631;29;20495;-63
2023/08/02 11:34:19;;;;;;;5.13;2.60;;;;;;;;;;4934593;29;20440;-63
2023/08/02 11:36:48;;;;;;;3.37;1.70;;;;;;;;;;4933287;29;20479;-63
2023/08/02 11:39:15;;;;;;;2.90;1.70;;;;;;;;;;4932636;29;20543;-63
2023/08/02 11:41:43;;;;;;;4.20;2.00;;;;;;;;;;4933729;29;20590;-64
2023/08/02 11:44:16;;;;;;;3.40;1.70;;;;;;;;;;4932723;29;20929;-63
2023/08/02 11:46:43;;;;;;;2.20;1.50;;;;;;;;;;4932496;29;20480;-63
2023/08/02 11:49:10;;;;;;;2.80;1.13;;;;;;;;;;4935123;29;20445;-63
2023/08/02 11:51:41;;;;;;;3.50;1.60;;;;;;;;;;4934460;29;20530;-63
2023/08/02 11:54:09;;;;;;;5.20;2.70;;;;;;;;;;4934492;28;20523;-63
2023/08/02 11:56:37;;;;;;;4.20;2.00;;;;;;;;;;4933678;29;20547;-63
2023/08/02 11:59:05;;;;;;;3.23;2.17;;;;;;;;;;4933047;29;20455;-63
2023/08/02 12:01:32;;;;;;;3.80;2.00;;;;;;;;;;4934027;29;20460;-63
2023/08/02 12:04:00;;;;;;;2.30;1.50;;;;;;;;;;4932458;29;20562;-63
2023/08/02 12:06:27;;;;;;;5.10;2.57;;;;;;;;;;4935997;29;20497;-63
2023/08/02 12:08:56;;;;;;;2.73;1.67;;;;;;;;;;4937050;29;20839;-63
2023/08/02 12:11:24;;;;;;;2.97;1.40;;;;;;;;;;4936557;29;20456;-63
2023/08/02 12:13:52;;;;;;;3.67;1.60;;;;;;;;;;4936421;29;20494;-63
2023/08/02 12:16:20;;;;;;;2.57;1.40;;;;;;;;;;4933343;29;20464;-63
2023/08/02 12:18:51;;;;;;;3.50;1.37;;;;;;;;;;4935504;29;20624;-63
2023/08/02 12:21:18;;;;;;;3.10;1.43;;;;;;;;;;4932810;29;20446;-63
2023/08/02 12:23:46;;;;;;;4.37;2.20;;;;;;;;;;4934279;29;20555;-63
2023/08/02 12:26:13;;;;;;;2.63;1.73;;;;;;;;;;4933944;29;21009;-63
2023/08/02 12:28:45;;;;;;;2.67;1.50;;;;;;;;;;4937307;29;20558;-63
2023/08/02 12:31:12;;;;;;;3.47;1.80;;;;;;;;;;4953647;29;20439;-63
2023/08/02 12:33:40;;;;;;;1.93;1.30;;;;;;;;;;4949908;29;20463;-63
2023/08/02 12:36:07;;;;;;;2.53;1.10;;;;;;;;;;4950246;28;20543;-63
2023/08/02 12:38:35;;;;;;;2.67;1.40;;;;;;;;;;4951509;29;20536;-63
2023/08/02 12:41:03;;;;;;;2.70;1.27;;;;;;;;;;4947713;29;20989;-63
2023/08/02 12:43:30;;;;;;;2.37;1.37;;;;;;;;;;4950524;29;20462;-63
2023/08/02 12:45:59;;;;;;;4.53;1.70;;;;;;;;;;4942749;29;20519;-64
2023/08/02 12:48:26;;;;;;;1.87;1.00;;;;;;;;;;4933218;29;20448;-64
2023/08/02 12:50:53;;;;;;;2.10;1.07;;;;;;;;;;4934107;29;20468;-64
2023/08/02 12:53:20;;;;;;;2.63;1.17;;;;;;;;;;4933614;29;20512;-63
2023/08/02 12:55:47;;;;;;;2.10;1.13;;;;;;;;;;4935354;29;20464;-64
2023/08/02 12:58:14;;;;;;;3.50;1.60;;;;;;;;;;4934477;29;20447;-63
2023/08/02 13:00:42;;;;;;;2.50;1.60;;;;;;;;;;4933028;29;20482;-63
2023/08/02 13:03:11;;;;;;;2.20;1.40;;;;;;;;;;4934136;29;20844;-64
2023/08/02 13:05:38;;;;;;;2.83;1.63;;;;;;;;;;4933365;29;20480;-64
2023/08/02 13:08:05;;;;;;;2.13;1.23;;;;;;;;;;4933159;29;20797;-63
2023/08/02 13:10:33;;;;;;;2.20;1.13;;;;;;;;;;4933452;29;20444;-64
2023/08/02 13:13:00;;;;;;;2.70;1.50;;;;;;;;;;4929307;29;20994;-64
2023/08/02 13:15:27;;;;;;;2.90;1.50;;;;;;;;;;4934969;28;20843;-64
2023/08/02 13:17:54;;;;;;;3.10;1.87;;;;;;;;;;4932141;29;20523;-63
2023/08/02 13:20:22;;;;;;;2.27;1.43;;;;;;;;;;4932842;29;20904;-63
2023/08/02 13:22:50;;;;;;;2.37;1.23;;;;;;;;;;4932154;29;20459;-64
2023/08/02 13:25:18;;;;;;;4.90;1.27;;;;;;;;;;4933266;28;20896;-64
2023/08/02 13:27:45;;;;;;;2.37;1.17;;;;;;;;;;4931396;29;20447;-64
2023/08/02 13:30:13;;;;;;;4.23;1.03;;;;;;;;;;4933216;29;20450;-63
2023/08/02 13:32:40;;;;;;;2.40;1.10;;;;;;;;;;4933313;29;20538;-65
2023/08/02 13:35:08;;;;;;;3.67;1.37;;;;;;;;;;4933001;28;20523;-65
2023/08/02 13:37:38;;;;;;;2.53;1.30;;;;;;;;;;4935648;29;21067;-62
2023/08/02 13:40:05;;;;;;;5.60;1.50;;;;;;;;;;4938922;29;20538;-64
2023/08/02 13:42:32;;;;;;;2.50;1.63;;;;;;;;;;4936676;29;20534;-63
2023/08/02 13:44:59;;;;;;;2.80;1.27;;;;;;;;;;4938714;29;20483;-63
2023/08/02 13:47:27;;;;;;;2.00;0.80;;;;;;;;;;4937242;29;20466;-63
2023/08/02 13:49:55;;;;;;;4.10;1.37;;;;;;;;;;4935480;29;20613;-64
2023/08/02 13:52:22;;;;;;;1.70;1.00;;;;;;;;;;4936759;29;20576;-64
2023/08/02 13:54:50;;;;;;;2.57;1.80;;;;;;;;;;4936752;29;20519;-63
2023/08/02 13:57:17;;;;;;;2.20;1.00;;;;;;;;;;4936740;29;20850;-64
2023/08/02 13:59:45;;;;;;;2.80;1.40;;;;;;;;;;4935966;29;20915;-64
2023/08/02 14:02:12;;;;;;;2.00;1.10;;;;;;;;;;4935678;29;20550;-64
2023/08/02 14:04:39;;;;;;;3.47;1.40;;;;;;;;;;4936228;29;20444;-64
2023/08/02 14:07:07;;;;;;;2.13;1.07;;;;;;;;;;4935878;29;20519;-63
2023/08/02 14:09:36;;;;;;;2.70;1.37;;;;;;;;;;4935460;29;20471;-64
2023/08/02 14:12:05;;;;;;;1.83;1.00;;;;;;;;;;4933794;29;20467;-64
2023/08/02 14:14:33;;;;;;;1.90;0.97;;;;;;;;;;4936853;29;20436;-64
2023/08/02 14:17:00;;;;;;;2.00;1.07;;;;;;;;;;4936320;29;20881;-65
2023/08/02 14:19:27;;;;;;;2.57;1.17;;;;;;;;;;4937904;29;20612;-65
2023/08/02 14:21:54;;;;;;;1.87;1.10;;;;;;;;;;4936011;29;20519;-63
2023/08/02 14:24:21;;;;;;;2.00;0.93;;;;;;;;;;4937689;29;20452;-64
2023/08/02 14:26:48;;;;;;;2.20;1.00;;;;;;;;;;4934318;29;21065;-64
2023/08/02 14:29:17;;;;;;;2.10;1.20;;;;;;;;;;4937150;29;20796;-65
2023/08/02 14:31:44;;;;;;;1.83;1.00;;;;;;;;;;4933167;29;20450;-64
2023/08/02 14:34:11;;;;;;;2.13;1.07;;;;;;;;;;4935856;29;20464;-64
2023/08/02 14:36:38;;;;;;;1.90;1.20;;;;;;;;;;4934472;29;20491;-64
2023/08/02 14:39:06;;;;;;;5.43;1.80;;;;;;;;;;4934931;28;20467;-64
2023/08/02 14:41:33;;;;;;;2.53;1.17;;;;;;;;;;4934895;29;20448;-64
2023/08/02 14:44:00;;;;;;;2.63;1.13;;;;;;;;;;4934779;29;20827;-64
2023/08/02 14:46:28;;;;;;;4.87;1.47;;;;;;;;;;4934951;29;20578;-64